Página principal
METAR-TAF:

METAR-TAF

Aeroportos :

Qazvin, Irão

latitude: 36-15N, longitude: 050-00E, altura: 1278 m

Observação actual do tempo

O boletim foi feito há 54 minutos, às 12:00 UTC
Vento 4 kt de sudoeste
Temperatura 10°C
Humidade 62%
Pressão 1020 hPa
Visibilidade: 4000 m
Poucas nuvensa uma altura de 3500 ft
Encobertoa uma altura de 10000 ft
bruma

METAR: OIIK 161200Z 22004KT 4000 HZ FEW035 OVC100 10/03 Q1020

Hora: 16:24 (12:54 UTC)


TAF: em falta

Observações e previsões do tempo de mais de 4000 aeroportos (mensagens METAR e TAF).

As estações disponíveis são os pontos amarelos e vermelhos sobre o mapa.

Mova o rato sobre o mapa para ver o nome da estação.

Depois clique no ponto para visualizar as observações e previsões meteorológicas.

Para alterar o mapa : clique nos botões verdes com uma cruz preta para aumentar o zoom; no botão verde com uma pitada de zoom; ou nas setas verdes para mapas adjacentes.


METAR-TAF: